sensor_id;sensor_type;location;lat;lon;timestamp;P1;durP1;ratioP1;P2;durP2;ratioP2
21034;SDS011;10676;50.848;3.272;2023-02-16T00:01:55;159.37;;;75.57;;
21034;SDS011;10676;50.848;3.272;2023-02-16T00:04:25;164.77;;;75.30;;
21034;SDS011;10676;50.848;3.272;2023-02-16T00:06:53;171.67;;;77.97;;
21034;SDS011;10676;50.848;3.272;2023-02-16T00:09:19;169.77;;;77.73;;
21034;SDS011;10676;50.848;3.272;2023-02-16T00:11:46;163.40;;;72.53;;
21034;SDS011;10676;50.848;3.272;2023-02-16T00:14:35;168.00;;;74.87;;
21034;SDS011;10676;50.848;3.272;2023-02-16T00:17:02;159.67;;;76.27;;
21034;SDS011;10676;50.848;3.272;2023-02-16T00:19:30;167.23;;;76.80;;
21034;SDS011;10676;50.848;3.272;2023-02-16T00:21:59;158.67;;;75.37;;
21034;SDS011;10676;50.848;3.272;2023-02-16T00:24:26;163.63;;;74.03;;
21034;SDS011;10676;50.848;3.272;2023-02-16T00:26:53;167.43;;;75.30;;
21034;SDS011;10676;50.848;3.272;2023-02-16T00:31:57;166.97;;;74.53;;
21034;SDS011;10676;50.848;3.272;2023-02-16T00:34:37;171.93;;;75.23;;
21034;SDS011;10676;50.848;3.272;2023-02-16T00:37:07;168.57;;;72.93;;
21034;SDS011;10676;50.848;3.272;2023-02-16T00:39:34;166.20;;;76.47;;
21034;SDS011;10676;50.848;3.272;2023-02-16T00:42:04;160.70;;;72.93;;
21034;SDS011;10676;50.848;3.272;2023-02-16T00:44:50;158.90;;;70.97;;
21034;SDS011;10676;50.848;3.272;2023-02-16T00:50:14;161.67;;;71.40;;
21034;SDS011;10676;50.848;3.272;2023-02-16T00:52:53;165.20;;;72.87;;
21034;SDS011;10676;50.848;3.272;2023-02-16T00:55:23;166.10;;;71.50;;
21034;SDS011;10676;50.848;3.272;2023-02-16T01:00:48;162.47;;;71.90;;
21034;SDS011;10676;50.848;3.272;2023-02-16T01:03:21;165.20;;;72.97;;
21034;SDS011;10676;50.848;3.272;2023-02-16T01:05:50;163.13;;;73.73;;
21034;SDS011;10676;50.848;3.272;2023-02-16T01:08:35;167.90;;;72.30;;
21034;SDS011;10676;50.848;3.272;2023-02-16T01:11:20;152.73;;;71.33;;
21034;SDS011;10676;50.848;3.272;2023-02-16T01:13:48;164.83;;;74.37;;
21034;SDS011;10676;50.848;3.272;2023-02-16T01:16:16;166.23;;;76.87;;
21034;SDS011;10676;50.848;3.272;2023-02-16T01:18:47;168.17;;;75.03;;
21034;SDS011;10676;50.848;3.272;2023-02-16T01:21:14;163.03;;;75.53;;
21034;SDS011;10676;50.848;3.272;2023-02-16T01:23:39;164.13;;;75.23;;
21034;SDS011;10676;50.848;3.272;2023-02-16T01:26:06;165.17;;;73.67;;
21034;SDS011;10676;50.848;3.272;2023-02-16T01:28:38;165.33;;;77.80;;
21034;SDS011;10676;50.848;3.272;2023-02-16T01:31:03;167.43;;;76.40;;
21034;SDS011;10676;50.848;3.272;2023-02-16T01:33:30;165.93;;;75.17;;
21034;SDS011;10676;50.848;3.272;2023-02-16T01:35:56;166.93;;;73.93;;
21034;SDS011;10676;50.848;3.272;2023-02-16T01:38:24;157.93;;;71.90;;
21034;SDS011;10676;50.848;3.272;2023-02-16T01:44:03;165.20;;;74.60;;
21034;SDS011;10676;50.848;3.272;2023-02-16T01:46:37;156.07;;;72.33;;
21034;SDS011;10676;50.848;3.272;2023-02-16T01:49:13;157.43;;;72.53;;
21034;SDS011;10676;50.848;3.272;2023-02-16T01:54:39;156.43;;;70.33;;
21034;SDS011;10676;50.848;3.272;2023-02-16T01:57:45;154.73;;;72.97;;
21034;SDS011;10676;50.848;3.272;2023-02-16T02:03:00;154.17;;;72.33;;
21034;SDS011;10676;50.848;3.272;2023-02-16T02:05:45;138.53;;;67.87;;
21034;SDS011;10676;50.848;3.272;2023-02-16T02:08:17;147.77;;;69.03;;
21034;SDS011;10676;50.848;3.272;2023-02-16T02:11:09;141.00;;;68.43;;
21034;SDS011;10676;50.848;3.272;2023-02-16T02:13:51;145.50;;;69.80;;
21034;SDS011;10676;50.848;3.272;2023-02-16T02:16:22;144.03;;;67.67;;
21034;SDS011;10676;50.848;3.272;2023-02-16T02:18:50;149.23;;;74.07;;
21034;SDS011;10676;50.848;3.272;2023-02-16T02:24:37;144.87;;;69.90;;
21034;SDS011;10676;50.848;3.272;2023-02-16T02:27:33;145.30;;;72.40;;
21034;SDS011;10676;50.848;3.272;2023-02-16T02:35:31;144.33;;;67.33;;
21034;SDS011;10676;50.848;3.272;2023-02-16T02:38:23;138.80;;;70.67;;
21034;SDS011;10676;50.848;3.272;2023-02-16T02:41:07;139.57;;;68.70;;
21034;SDS011;10676;50.848;3.272;2023-02-16T02:43:56;145.37;;;68.33;;
21034;SDS011;10676;50.848;3.272;2023-02-16T02:46:26;139.70;;;67.90;;
21034;SDS011;10676;50.848;3.272;2023-02-16T02:48:56;144.67;;;69.00;;
21034;SDS011;10676;50.848;3.272;2023-02-16T02:51:21;137.37;;;67.17;;
21034;SDS011;10676;50.848;3.272;2023-02-16T02:59:47;138.53;;;68.87;;
21034;SDS011;10676;50.848;3.272;2023-02-16T03:02:42;133.20;;;67.50;;
21034;SDS011;10676;50.848;3.272;2023-02-16T03:05:12;138.50;;;66.47;;
21034;SDS011;10676;50.848;3.272;2023-02-16T03:07:39;137.40;;;65.83;;
21034;SDS011;10676;50.848;3.272;2023-02-16T03:10:17;132.53;;;65.83;;
21034;SDS011;10676;50.848;3.272;2023-02-16T03:13:05;131.90;;;64.73;;
21034;SDS011;10676;50.848;3.272;2023-02-16T03:15:37;135.73;;;66.63;;
21034;SDS011;10676;50.848;3.272;2023-02-16T03:18:04;131.77;;;66.17;;
21034;SDS011;10676;50.848;3.272;2023-02-16T03:20:51;132.30;;;67.43;;
21034;SDS011;10676;50.848;3.272;2023-02-16T03:23:35;141.43;;;68.03;;
21034;SDS011;10676;50.848;3.272;2023-02-16T03:26:22;135.93;;;66.97;;
21034;SDS011;10676;50.848;3.272;2023-02-16T03:29:07;125.70;;;66.03;;
21034;SDS011;10676;50.848;3.272;2023-02-16T03:31:40;127.53;;;64.43;;
21034;SDS011;10676;50.848;3.272;2023-02-16T03:34:07;129.23;;;65.93;;
21034;SDS011;10676;50.848;3.272;2023-02-16T03:36:33;126.38;;;63.53;;
21034;SDS011;10676;50.848;3.272;2023-02-16T03:39:02;126.90;;;65.03;;
21034;SDS011;10676;50.848;3.272;2023-02-16T03:41:47;127.93;;;66.07;;
21034;SDS011;10676;50.848;3.272;2023-02-16T03:44:15;127.60;;;66.93;;
21034;SDS011;10676;50.848;3.272;2023-02-16T03:46:41;117.97;;;64.47;;
21034;SDS011;10676;50.848;3.272;2023-02-16T03:49:07;120.03;;;63.53;;
21034;SDS011;10676;50.848;3.272;2023-02-16T03:51:33;112.60;;;63.50;;
21034;SDS011;10676;50.848;3.272;2023-02-16T03:53:59;117.70;;;64.50;;
21034;SDS011;10676;50.848;3.272;2023-02-16T03:56:25;116.00;;;61.10;;
21034;SDS011;10676;50.848;3.272;2023-02-16T03:58:50;110.83;;;60.03;;
21034;SDS011;10676;50.848;3.272;2023-02-16T04:01:16;107.37;;;61.33;;
21034;SDS011;10676;50.848;3.272;2023-02-16T04:03:42;110.20;;;61.00;;
21034;SDS011;10676;50.848;3.272;2023-02-16T04:06:08;109.77;;;61.07;;
21034;SDS011;10676;50.848;3.272;2023-02-16T04:08:33;108.73;;;60.80;;
21034;SDS011;10676;50.848;3.272;2023-02-16T04:10:59;110.13;;;61.20;;
21034;SDS011;10676;50.848;3.272;2023-02-16T04:13:25;104.57;;;60.63;;
21034;SDS011;10676;50.848;3.272;2023-02-16T04:15:51;105.78;;;58.97;;
21034;SDS011;10676;50.848;3.272;2023-02-16T04:18:16;104.05;;;59.13;;
21034;SDS011;10676;50.848;3.272;2023-02-16T04:20:42;98.05;;;59.47;;
21034;SDS011;10676;50.848;3.272;2023-02-16T04:23:08;107.43;;;61.20;;
21034;SDS011;10676;50.848;3.272;2023-02-16T04:25:34;100.90;;;58.67;;
21034;SDS011;10676;50.848;3.272;2023-02-16T04:27:59;102.87;;;58.13;;
21034;SDS011;10676;50.848;3.272;2023-02-16T04:30:26;106.17;;;58.70;;
21034;SDS011;10676;50.848;3.272;2023-02-16T04:32:54;105.53;;;59.70;;
21034;SDS011;10676;50.848;3.272;2023-02-16T04:35:20;95.07;;;56.70;;
21034;SDS011;10676;50.848;3.272;2023-02-16T04:37:46;96.73;;;58.30;;
21034;SDS011;10676;50.848;3.272;2023-02-16T04:40:12;99.07;;;57.97;;
21034;SDS011;10676;50.848;3.272;2023-02-16T04:42:39;103.60;;;58.78;;
21034;SDS011;10676;50.848;3.272;2023-02-16T04:45:06;97.65;;;57.45;;
21034;SDS011;10676;50.848;3.272;2023-02-16T04:47:33;91.90;;;56.53;;
21034;SDS011;10676;50.848;3.272;2023-02-16T04:49:58;99.00;;;58.43;;
21034;SDS011;10676;50.848;3.272;2023-02-16T04:52:24;95.88;;;56.72;;
21034;SDS011;10676;50.848;3.272;2023-02-16T04:54:50;94.40;;;55.67;;
21034;SDS011;10676;50.848;3.272;2023-02-16T04:57:15;96.90;;;56.22;;
21034;SDS011;10676;50.848;3.272;2023-02-16T04:59:41;93.93;;;55.70;;
21034;SDS011;10676;50.848;3.272;2023-02-16T05:02:07;98.70;;;55.83;;
21034;SDS011;10676;50.848;3.272;2023-02-16T05:04:33;96.63;;;57.55;;
21034;SDS011;10676;50.848;3.272;2023-02-16T05:06:59;93.30;;;55.05;;
21034;SDS011;10676;50.848;3.272;2023-02-16T05:09:24;94.67;;;55.00;;
21034;SDS011;10676;50.848;3.272;2023-02-16T05:11:50;88.78;;;54.53;;
21034;SDS011;10676;50.848;3.272;2023-02-16T05:14:34;93.97;;;56.80;;
21034;SDS011;10676;50.848;3.272;2023-02-16T05:17:14;88.13;;;55.63;;
21034;SDS011;10676;50.848;3.272;2023-02-16T05:19:40;91.80;;;56.37;;
21034;SDS011;10676;50.848;3.272;2023-02-16T05:22:08;88.43;;;56.30;;
21034;SDS011;10676;50.848;3.272;2023-02-16T05:24:34;89.20;;;55.28;;
21034;SDS011;10676;50.848;3.272;2023-02-16T05:27:04;89.67;;;55.27;;
21034;SDS011;10676;50.848;3.272;2023-02-16T05:29:32;85.22;;;52.78;;
21034;SDS011;10676;50.848;3.272;2023-02-16T05:31:57;80.50;;;53.45;;
21034;SDS011;10676;50.848;3.272;2023-02-16T05:34:23;84.03;;;53.10;;
21034;SDS011;10676;50.848;3.272;2023-02-16T05:36:49;84.05;;;54.33;;
21034;SDS011;10676;50.848;3.272;2023-02-16T05:39:15;85.90;;;53.65;;
21034;SDS011;10676;50.848;3.272;2023-02-16T05:41:41;86.13;;;53.65;;
21034;SDS011;10676;50.848;3.272;2023-02-16T05:44:07;88.88;;;54.33;;
21034;SDS011;10676;50.848;3.272;2023-02-16T05:46:34;87.15;;;53.00;;
21034;SDS011;10676;50.848;3.272;2023-02-16T05:49:01;84.38;;;53.72;;
21034;SDS011;10676;50.848;3.272;2023-02-16T05:51:27;83.78;;;53.92;;
21034;SDS011;10676;50.848;3.272;2023-02-16T05:53:53;82.57;;;54.25;;
21034;SDS011;10676;50.848;3.272;2023-02-16T05:56:19;82.10;;;53.70;;
21034;SDS011;10676;50.848;3.272;2023-02-16T05:58:46;78.43;;;53.38;;
21034;SDS011;10676;50.848;3.272;2023-02-16T06:01:12;87.03;;;53.60;;
21034;SDS011;10676;50.848;3.272;2023-02-16T06:03:37;84.97;;;54.33;;
21034;SDS011;10676;50.848;3.272;2023-02-16T06:06:03;81.22;;;51.92;;
21034;SDS011;10676;50.848;3.272;2023-02-16T06:08:30;80.25;;;51.20;;
21034;SDS011;10676;50.848;3.272;2023-02-16T06:10:56;82.60;;;52.15;;
21034;SDS011;10676;50.848;3.272;2023-02-16T06:13:23;83.22;;;54.30;;
21034;SDS011;10676;50.848;3.272;2023-02-16T06:15:52;79.35;;;51.65;;
21034;SDS011;10676;50.848;3.272;2023-02-16T06:18:20;77.97;;;50.28;;
21034;SDS011;10676;50.848;3.272;2023-02-16T06:20:49;80.43;;;50.63;;
21034;SDS011;10676;50.848;3.272;2023-02-16T06:23:15;80.68;;;53.00;;
21034;SDS011;10676;50.848;3.272;2023-02-16T06:25:42;84.75;;;53.20;;
21034;SDS011;10676;50.848;3.272;2023-02-16T06:28:13;76.55;;;52.50;;
21034;SDS011;10676;50.848;3.272;2023-02-16T06:30:39;79.15;;;52.97;;
21034;SDS011;10676;50.848;3.272;2023-02-16T06:33:06;77.20;;;53.03;;
21034;SDS011;10676;50.848;3.272;2023-02-16T06:35:32;77.57;;;54.80;;
21034;SDS011;10676;50.848;3.272;2023-02-16T06:37:58;80.80;;;51.35;;
21034;SDS011;10676;50.848;3.272;2023-02-16T06:40:24;73.32;;;50.05;;
21034;SDS011;10676;50.848;3.272;2023-02-16T06:42:50;77.70;;;51.80;;
21034;SDS011;10676;50.848;3.272;2023-02-16T06:45:15;76.13;;;50.28;;
21034;SDS011;10676;50.848;3.272;2023-02-16T06:47:41;80.60;;;52.65;;
21034;SDS011;10676;50.848;3.272;2023-02-16T06:50:07;81.85;;;51.65;;
21034;SDS011;10676;50.848;3.272;2023-02-16T06:52:34;81.78;;;50.60;;
21034;SDS011;10676;50.848;3.272;2023-02-16T06:55:00;76.72;;;49.58;;
21034;SDS011;10676;50.848;3.272;2023-02-16T06:57:26;77.38;;;47.90;;
21034;SDS011;10676;50.848;3.272;2023-02-16T06:59:52;79.95;;;48.45;;
21034;SDS011;10676;50.848;3.272;2023-02-16T07:02:17;79.65;;;51.15;;
21034;SDS011;10676;50.848;3.272;2023-02-16T07:04:43;73.38;;;50.38;;
21034;SDS011;10676;50.848;3.272;2023-02-16T07:07:09;76.70;;;50.45;;
21034;SDS011;10676;50.848;3.272;2023-02-16T07:09:35;80.45;;;49.08;;
21034;SDS011;10676;50.848;3.272;2023-02-16T07:12:01;78.07;;;48.47;;
21034;SDS011;10676;50.848;3.272;2023-02-16T07:14:27;77.97;;;47.47;;
21034;SDS011;10676;50.848;3.272;2023-02-16T07:16:54;81.13;;;48.28;;
21034;SDS011;10676;50.848;3.272;2023-02-16T07:19:23;82.95;;;48.63;;
21034;SDS011;10676;50.848;3.272;2023-02-16T07:21:49;89.57;;;50.72;;
21034;SDS011;10676;50.848;3.272;2023-02-16T07:24:15;81.32;;;49.88;;
21034;SDS011;10676;50.848;3.272;2023-02-16T07:26:40;86.38;;;50.08;;
21034;SDS011;10676;50.848;3.272;2023-02-16T07:29:06;81.10;;;49.05;;
21034;SDS011;10676;50.848;3.272;2023-02-16T07:31:32;83.65;;;50.38;;
21034;SDS011;10676;50.848;3.272;2023-02-16T07:33:58;81.65;;;49.65;;
21034;SDS011;10676;50.848;3.272;2023-02-16T07:36:24;79.53;;;48.40;;
21034;SDS011;10676;50.848;3.272;2023-02-16T07:38:49;76.60;;;49.03;;
21034;SDS011;10676;50.848;3.272;2023-02-16T07:41:15;83.15;;;49.38;;
21034;SDS011;10676;50.848;3.272;2023-02-16T07:43:41;78.43;;;47.33;;
21034;SDS011;10676;50.848;3.272;2023-02-16T07:46:07;89.13;;;48.10;;
21034;SDS011;10676;50.848;3.272;2023-02-16T07:48:33;82.97;;;48.17;;
21034;SDS011;10676;50.848;3.272;2023-02-16T07:50:58;76.78;;;46.55;;
21034;SDS011;10676;50.848;3.272;2023-02-16T07:53:24;81.70;;;47.78;;
21034;SDS011;10676;50.848;3.272;2023-02-16T07:55:50;80.95;;;47.13;;
21034;SDS011;10676;50.848;3.272;2023-02-16T07:58:16;83.07;;;47.50;;
21034;SDS011;10676;50.848;3.272;2023-02-16T08:01:09;82.53;;;47.95;;
21034;SDS011;10676;50.848;3.272;2023-02-16T08:03:36;83.28;;;48.17;;
21034;SDS011;10676;50.848;3.272;2023-02-16T08:06:02;84.13;;;48.20;;
21034;SDS011;10676;50.848;3.272;2023-02-16T08:08:29;84.45;;;48.45;;
21034;SDS011;10676;50.848;3.272;2023-02-16T08:10:55;89.22;;;49.33;;
21034;SDS011;10676;50.848;3.272;2023-02-16T08:13:21;86.88;;;50.35;;
21034;SDS011;10676;50.848;3.272;2023-02-16T08:15:46;91.88;;;48.75;;
21034;SDS011;10676;50.848;3.272;2023-02-16T08:18:12;79.78;;;47.83;;
21034;SDS011;10676;50.848;3.272;2023-02-16T08:20:38;87.03;;;48.83;;
21034;SDS011;10676;50.848;3.272;2023-02-16T08:23:03;82.10;;;47.53;;
21034;SDS011;10676;50.848;3.272;2023-02-16T08:25:32;88.15;;;50.28;;
21034;SDS011;10676;50.848;3.272;2023-02-16T08:27:58;88.43;;;49.10;;
21034;SDS011;10676;50.848;3.272;2023-02-16T08:30:24;86.05;;;49.20;;
21034;SDS011;10676;50.848;3.272;2023-02-16T08:32:50;92.45;;;50.75;;
21034;SDS011;10676;50.848;3.272;2023-02-16T08:35:17;81.53;;;48.95;;
21034;SDS011;10676;50.848;3.272;2023-02-16T08:37:43;80.60;;;49.45;;
21034;SDS011;10676;50.848;3.272;2023-02-16T08:40:09;86.32;;;49.63;;
21034;SDS011;10676;50.848;3.272;2023-02-16T08:42:35;82.93;;;50.00;;
21034;SDS011;10676;50.848;3.272;2023-02-16T08:45:02;87.00;;;49.38;;
21034;SDS011;10676;50.848;3.272;2023-02-16T08:47:28;84.53;;;48.15;;
21034;SDS011;10676;50.848;3.272;2023-02-16T08:49:55;85.70;;;49.42;;
21034;SDS011;10676;50.848;3.272;2023-02-16T08:52:21;83.07;;;49.65;;
21034;SDS011;10676;50.848;3.272;2023-02-16T08:54:46;81.40;;;48.40;;
21034;SDS011;10676;50.848;3.272;2023-02-16T08:57:12;76.30;;;46.58;;
21034;SDS011;10676;50.848;3.272;2023-02-16T08:59:38;71.95;;;47.28;;
21034;SDS011;10676;50.848;3.272;2023-02-16T09:02:04;77.93;;;46.25;;
21034;SDS011;10676;50.848;3.272;2023-02-16T09:04:30;76.25;;;46.42;;
21034;SDS011;10676;50.848;3.272;2023-02-16T09:06:56;72.63;;;46.72;;
21034;SDS011;10676;50.848;3.272;2023-02-16T09:09:22;69.93;;;47.45;;
21034;SDS011;10676;50.848;3.272;2023-02-16T09:11:48;70.88;;;47.95;;
21034;SDS011;10676;50.848;3.272;2023-02-16T09:14:14;65.70;;;46.75;;
21034;SDS011;10676;50.848;3.272;2023-02-16T09:16:42;64.45;;;46.38;;
21034;SDS011;10676;50.848;3.272;2023-02-16T09:19:13;63.72;;;46.83;;
21034;SDS011;10676;50.848;3.272;2023-02-16T09:21:40;63.22;;;42.40;;
21034;SDS011;10676;50.848;3.272;2023-02-16T09:24:07;59.50;;;40.47;;
21034;SDS011;10676;50.848;3.272;2023-02-16T09:26:34;58.20;;;41.45;;
21034;SDS011;10676;50.848;3.272;2023-02-16T09:29:03;55.92;;;40.83;;
21034;SDS011;10676;50.848;3.272;2023-02-16T09:31:31;57.60;;;40.88;;
21034;SDS011;10676;50.848;3.272;2023-02-16T09:34:00;58.92;;;39.05;;
21034;SDS011;10676;50.848;3.272;2023-02-16T09:36:28;57.92;;;40.78;;
21034;SDS011;10676;50.848;3.272;2023-02-16T09:38:54;56.17;;;43.78;;
21034;SDS011;10676;50.848;3.272;2023-02-16T09:41:29;56.33;;;41.00;;
21034;SDS011;10676;50.848;3.272;2023-02-16T09:46:53;54.28;;;44.72;;
21034;SDS011;10676;50.848;3.272;2023-02-16T09:52:26;54.35;;;44.03;;
21034;SDS011;10676;50.848;3.272;2023-02-16T09:55:00;542.20;;;282.88;;
21034;SDS011;10676;50.848;3.272;2023-02-16T10:00:46;1999.90;;;999.90;;
21034;SDS011;10676;50.848;3.272;2023-02-16T10:08:54;1999.90;;;999.90;;
21034;SDS011;10676;50.848;3.272;2023-02-16T10:11:58;1999.90;;;999.90;;
21034;SDS011;10676;50.848;3.272;2023-02-16T10:19:58;1999.90;;;999.90;;
21034;SDS011;10676;50.848;3.272;2023-02-16T10:22:46;1999.90;;;999.90;;
21034;SDS011;10676;50.848;3.272;2023-02-16T10:27:50;1999.90;;;999.90;;
21034;SDS011;10676;50.848;3.272;2023-02-16T10:30:28;1999.90;;;999.90;;
21034;SDS011;10676;50.848;3.272;2023-02-16T10:32:58;1999.90;;;999.90;;
21034;SDS011;10676;50.848;3.272;2023-02-16T10:35:45;1999.90;;;999.90;;
21034;SDS011;10676;50.848;3.272;2023-02-16T10:41:11;1999.90;;;999.90;;
21034;SDS011;10676;50.848;3.272;2023-02-16T10:46:44;1999.90;;;999.90;;
21034;SDS011;10676;50.848;3.272;2023-02-16T10:49:16;1999.90;;;999.90;;
21034;SDS011;10676;50.848;3.272;2023-02-16T10:51:45;1999.90;;;999.90;;
21034;SDS011;10676;50.848;3.272;2023-02-16T10:54:35;1999.90;;;999.90;;
21034;SDS011;10676;50.848;3.272;2023-02-16T10:59:49;1999.90;;;999.90;;
21034;SDS011;10676;50.848;3.272;2023-02-16T11:02:29;1999.90;;;999.90;;
21034;SDS011;10676;50.848;3.272;2023-02-16T11:05:02;1999.90;;;999.90;;
21034;SDS011;10676;50.848;3.272;2023-02-16T11:07:54;1999.90;;;999.90;;
21034;SDS011;10676;50.848;3.272;2023-02-16T11:10:55;1999.90;;;999.90;;
21034;SDS011;10676;50.848;3.272;2023-02-16T11:13:26;1999.90;;;999.90;;
21034;SDS011;10676;50.848;3.272;2023-02-16T11:15:57;1999.90;;;999.90;;
21034;SDS011;10676;50.848;3.272;2023-02-16T11:20:54;1999.90;;;999.90;;
21034;SDS011;10676;50.848;3.272;2023-02-16T11:23:22;1999.90;;;999.90;;
21034;SDS011;10676;50.848;3.272;2023-02-16T11:25:53;1999.90;;;999.90;;
21034;SDS011;10676;50.848;3.272;2023-02-16T11:28:33;1999.90;;;999.90;;
21034;SDS011;10676;50.848;3.272;2023-02-16T11:31:02;1999.90;;;999.90;;
21034;SDS011;10676;50.848;3.272;2023-02-16T11:33:35;1999.90;;;999.90;;
21034;SDS011;10676;50.848;3.272;2023-02-16T11:36:02;1999.90;;;999.90;;
21034;SDS011;10676;50.848;3.272;2023-02-16T11:38:42;1999.90;;;999.90;;
21034;SDS011;10676;50.848;3.272;2023-02-16T11:41:25;1999.90;;;999.90;;
21034;SDS011;10676;50.848;3.272;2023-02-16T11:43:51;1999.90;;;999.90;;
21034;SDS011;10676;50.848;3.272;2023-02-16T11:46:18;1999.90;;;999.90;;
21034;SDS011;10676;50.848;3.272;2023-02-16T11:48:46;1999.90;;;999.90;;
21034;SDS011;10676;50.848;3.272;2023-02-16T11:51:15;1999.90;;;999.90;;
21034;SDS011;10676;50.848;3.272;2023-02-16T11:53:58;1999.90;;;999.90;;
21034;SDS011;10676;50.848;3.272;2023-02-16T11:56:28;1999.90;;;999.90;;
21034;SDS011;10676;50.848;3.272;2023-02-16T11:59:01;1999.90;;;999.90;;
21034;SDS011;10676;50.848;3.272;2023-02-16T12:21:49;1999.90;;;999.90;;
21034;SDS011;10676;50.848;3.272;2023-02-16T12:27:03;1999.90;;;999.90;;
21034;SDS011;10676;50.848;3.272;2023-02-16T12:29:53;1999.90;;;999.90;;
21034;SDS011;10676;50.848;3.272;2023-02-16T12:32:37;1999.90;;;999.90;;
21034;SDS011;10676;50.848;3.272;2023-02-16T12:41:18;1999.90;;;999.90;;
21034;SDS011;10676;50.848;3.272;2023-02-16T12:43:48;1999.90;;;999.90;;
21034;SDS011;10676;50.848;3.272;2023-02-16T12:46:21;1999.90;;;999.90;;
21034;SDS011;10676;50.848;3.272;2023-02-16T12:52:02;1999.90;;;999.90;;
21034;SDS011;10676;50.848;3.272;2023-02-16T12:54:44;1999.90;;;999.90;;
21034;SDS011;10676;50.848;3.272;2023-02-16T12:57:26;1999.90;;;999.90;;
21034;SDS011;10676;50.848;3.272;2023-02-16T13:00:03;1999.90;;;999.90;;
21034;SDS011;10676;50.848;3.272;2023-02-16T13:02:40;1999.90;;;999.90;;
21034;SDS011;10676;50.848;3.272;2023-02-16T13:07:42;1999.90;;;999.90;;
21034;SDS011;10676;50.848;3.272;2023-02-16T13:13:09;1999.90;;;999.90;;
21034;SDS011;10676;50.848;3.272;2023-02-16T13:15:39;1999.90;;;999.90;;
21034;SDS011;10676;50.848;3.272;2023-02-16T13:18:23;1999.90;;;999.90;;
21034;SDS011;10676;50.848;3.272;2023-02-16T13:20:57;1999.90;;;999.90;;
21034;SDS011;10676;50.848;3.272;2023-02-16T13:29:25;1999.90;;;999.90;;
21034;SDS011;10676;50.848;3.272;2023-02-16T13:35:26;1999.90;;;999.90;;
21034;SDS011;10676;50.848;3.272;2023-02-16T13:43:36;1999.90;;;999.90;;
21034;SDS011;10676;50.848;3.272;2023-02-16T13:46:06;1999.90;;;999.90;;
21034;SDS011;10676;50.848;3.272;2023-02-16T13:48:46;1999.90;;;999.90;;
21034;SDS011;10676;50.848;3.272;2023-02-16T13:51:17;1999.90;;;999.90;;
21034;SDS011;10676;50.848;3.272;2023-02-16T13:58:58;1999.90;;;999.90;;
21034;SDS011;10676;50.848;3.272;2023-02-16T14:01:44;1999.90;;;999.90;;
21034;SDS011;10676;50.848;3.272;2023-02-16T14:20:02;1999.90;;;999.90;;
21034;SDS011;10676;50.848;3.272;2023-02-16T14:22:36;1999.90;;;999.90;;
21034;SDS011;10676;50.848;3.272;2023-02-16T14:27:47;1999.90;;;999.90;;
21034;SDS011;10676;50.848;3.272;2023-02-16T14:30:24;1999.90;;;999.90;;
21034;SDS011;10676;50.848;3.272;2023-02-16T14:33:02;1999.90;;;999.90;;
21034;SDS011;10676;50.848;3.272;2023-02-16T14:35:36;1999.90;;;999.90;;
21034;SDS011;10676;50.848;3.272;2023-02-16T14:41:06;1999.90;;;999.90;;
21034;SDS011;10676;50.848;3.272;2023-02-16T14:43:48;1999.90;;;999.90;;
21034;SDS011;10676;50.848;3.272;2023-02-16T14:49:07;1999.90;;;999.90;;
21034;SDS011;10676;50.848;3.272;2023-02-16T14:57:06;1999.90;;;999.90;;
21034;SDS011;10676;50.848;3.272;2023-02-16T14:59:41;1999.90;;;999.90;;
21034;SDS011;10676;50.848;3.272;2023-02-16T15:04:50;1999.90;;;999.90;;
21034;SDS011;10676;50.848;3.272;2023-02-16T15:07:16;1999.90;;;999.90;;
21034;SDS011;10676;50.848;3.272;2023-02-16T15:09:42;1999.90;;;999.90;;
21034;SDS011;10676;50.848;3.272;2023-02-16T15:12:11;1999.90;;;999.90;;
21034;SDS011;10676;50.848;3.272;2023-02-16T15:20:08;1999.90;;;999.90;;
21034;SDS011;10676;50.848;3.272;2023-02-16T15:23:00;1999.90;;;999.90;;
21034;SDS011;10676;50.848;3.272;2023-02-16T15:25:29;29.58;;;26.65;;
21034;SDS011;10676;50.848;3.272;2023-02-16T15:28:00;36.70;;;33.40;;
21034;SDS011;10676;50.848;3.272;2023-02-16T15:30:36;27.35;;;21.75;;
21034;SDS011;10676;50.848;3.272;2023-02-16T15:33:06;29.45;;;22.08;;
21034;SDS011;10676;50.848;3.272;2023-02-16T15:35:57;29.85;;;22.17;;
21034;SDS011;10676;50.848;3.272;2023-02-16T15:38:26;28.88;;;22.08;;
21034;SDS011;10676;50.848;3.272;2023-02-16T15:40:57;23.55;;;20.02;;
21034;SDS011;10676;50.848;3.272;2023-02-16T15:43:43;26.15;;;20.75;;
21034;SDS011;10676;50.848;3.272;2023-02-16T15:46:24;25.92;;;20.00;;
21034;SDS011;10676;50.848;3.272;2023-02-16T15:49:12;32.35;;;24.98;;
21034;SDS011;10676;50.848;3.272;2023-02-16T15:51:59;23.10;;;18.13;;
21034;SDS011;10676;50.848;3.272;2023-02-16T15:54:26;37.63;;;26.33;;
21034;SDS011;10676;50.848;3.272;2023-02-16T15:57:06;28.20;;;21.15;;
21034;SDS011;10676;50.848;3.272;2023-02-16T15:59:47;25.08;;;18.55;;
21034;SDS011;10676;50.848;3.272;2023-02-16T16:02:18;26.73;;;20.80;;
21034;SDS011;10676;50.848;3.272;2023-02-16T16:04:59;30.52;;;22.02;;
21034;SDS011;10676;50.848;3.272;2023-02-16T16:07:27;33.53;;;24.23;;
21034;SDS011;10676;50.848;3.272;2023-02-16T16:09:56;27.30;;;20.00;;
21034;SDS011;10676;50.848;3.272;2023-02-16T16:12:23;37.25;;;24.67;;
21034;SDS011;10676;50.848;3.272;2023-02-16T16:14:54;31.98;;;21.27;;
21034;SDS011;10676;50.848;3.272;2023-02-16T16:17:25;30.80;;;21.83;;
21034;SDS011;10676;50.848;3.272;2023-02-16T16:19:54;24.70;;;20.10;;
21034;SDS011;10676;50.848;3.272;2023-02-16T16:22:40;25.83;;;18.85;;
21034;SDS011;10676;50.848;3.272;2023-02-16T16:27:58;29.13;;;20.00;;
21034;SDS011;10676;50.848;3.272;2023-02-16T16:33:07;23.65;;;19.63;;
21034;SDS011;10676;50.848;3.272;2023-02-16T16:35:42;21.52;;;19.25;;
21034;SDS011;10676;50.848;3.272;2023-02-16T16:38:27;19.23;;;16.33;;
21034;SDS011;10676;50.848;3.272;2023-02-16T16:40:57;25.80;;;18.48;;
21034;SDS011;10676;50.848;3.272;2023-02-16T16:43:36;31.45;;;23.02;;
21034;SDS011;10676;50.848;3.272;2023-02-16T16:46:19;26.17;;;19.88;;
21034;SDS011;10676;50.848;3.272;2023-02-16T16:48:51;19.25;;;15.95;;
21034;SDS011;10676;50.848;3.272;2023-02-16T16:51:34;21.33;;;18.73;;
21034;SDS011;10676;50.848;3.272;2023-02-16T16:56:37;23.33;;;18.98;;
21034;SDS011;10676;50.848;3.272;2023-02-16T16:59:04;24.83;;;17.58;;
21034;SDS011;10676;50.848;3.272;2023-02-16T17:01:31;19.42;;;16.27;;
21034;SDS011;10676;50.848;3.272;2023-02-16T17:03:57;19.45;;;17.63;;
21034;SDS011;10676;50.848;3.272;2023-02-16T17:06:23;22.60;;;18.15;;
21034;SDS011;10676;50.848;3.272;2023-02-16T17:08:49;19.38;;;16.98;;
21034;SDS011;10676;50.848;3.272;2023-02-16T17:11:21;21.17;;;17.55;;
21034;SDS011;10676;50.848;3.272;2023-02-16T17:13:56;20.63;;;16.80;;
21034;SDS011;10676;50.848;3.272;2023-02-16T17:16:30;22.17;;;16.90;;
21034;SDS011;10676;50.848;3.272;2023-02-16T17:19:00;19.02;;;16.98;;
21034;SDS011;10676;50.848;3.272;2023-02-16T17:21:27;19.67;;;15.90;;